Time;durP1;ratioP1;P1;durP2;ratioP2;P2;SDS_P1;SDS_P2;PMS_P1;PMS_P2;Temp;Humidity;BMP_temperature;BMP_pressure;BME280_temperature;BME280_humidity;BME280_pressure;Samples;Min_cycle;Max_cycle;Signal;HPM_P1;HPM_P2
2022/01/16 00:01:23;;;;;;;34.72;15.50;;;2.80;89.30;;;;;;5073015;28;20111;-68
2022/01/16 00:04:07;;;;;;;28.48;15.55;;;2.80;90.20;;;;;;5073092;28;20032;-68
2022/01/16 00:06:33;;;;;;;26.80;13.98;;;2.80;89.90;;;;;;5073513;28;20104;-67
2022/01/16 00:08:59;;;;;;;29.48;14.13;;;2.80;90.20;;;;;;5072822;28;20065;-67
2022/01/16 00:11:25;;;;;;;31.25;15.18;;;2.80;90.10;;;;;;5073083;28;20482;-67
2022/01/16 00:13:51;;;;;;;33.67;14.40;;;2.70;89.80;;;;;;5072684;28;20032;-67
2022/01/16 00:16:17;;;;;;;34.47;15.32;;;2.70;90.10;;;;;;5072888;28;20476;-68
2022/01/16 00:18:52;;;;;;;31.23;14.27;;;2.70;90.30;;;;;;5073171;28;20036;-68
2022/01/16 00:21:28;;;;;;;28.95;14.00;;;2.60;90.30;;;;;;5073342;28;20532;-68
2022/01/16 00:23:54;;;;;;;25.98;14.45;;;2.60;89.80;;;;;;5072683;28;20037;-68
2022/01/16 00:26:21;;;;;;;32.28;15.55;;;2.60;90.70;;;;;;5072989;28;20028;-68
2022/01/16 00:28:49;;;;;;;31.67;14.90;;;2.60;90.60;;;;;;5073025;28;20052;-68
2022/01/16 00:31:16;;;;;;;30.90;15.35;;;2.50;90.20;;;;;;5072966;28;20066;-68
2022/01/16 00:33:44;;;;;;;30.33;16.15;;;2.50;90.40;;;;;;5072920;28;20029;-68
2022/01/16 00:36:11;;;;;;;33.70;16.20;;;2.40;90.90;;;;;;5072204;28;20028;-68
2022/01/16 00:38:43;;;;;;;31.13;15.52;;;2.50;91.00;;;;;;5072920;28;20036;-68
2022/01/16 00:41:09;;;;;;;29.15;16.80;;;2.40;91.00;;;;;;5072206;28;20028;-69
2022/01/16 00:43:35;;;;;;;30.55;17.52;;;2.40;90.80;;;;;;5072731;28;20028;-68
2022/01/16 00:46:01;;;;;;;33.13;17.35;;;2.40;90.90;;;;;;5071910;28;20090;-68
2022/01/16 00:48:26;;;;;;;33.53;15.95;;;2.30;90.70;;;;;;5072366;28;20031;-68
2022/01/16 00:50:52;;;;;;;33.60;16.38;;;2.30;91.10;;;;;;5072115;28;20032;-68
2022/01/16 00:53:18;;;;;;;32.55;15.95;;;2.30;91.40;;;;;;5072383;28;20040;-68
2022/01/16 00:55:44;;;;;;;29.65;16.13;;;2.30;91.20;;;;;;5071780;28;20048;-67
2022/01/16 01:00:54;;;;;;;33.47;16.23;;;2.30;91.50;;;;;;5071605;28;20082;-67
2022/01/16 01:03:19;;;;;;;31.65;17.23;;;2.20;91.40;;;;;;5072333;28;20029;-67
2022/01/16 01:05:45;;;;;;;28.00;16.30;;;2.20;91.60;;;;;;5072333;28;20063;-67
2022/01/16 01:08:11;;;;;;;29.05;16.75;;;2.20;91.50;;;;;;5053910;28;20052;-67
2022/01/16 01:10:39;;;;;;;30.60;16.88;;;2.20;91.80;;;;;;5072289;28;20020;-67
2022/01/16 01:13:23;;;;;;;33.70;17.40;;;2.20;92.20;;;;;;5071172;28;20392;-67
2022/01/16 01:15:58;;;;;;;30.65;16.60;;;2.10;92.10;;;;;;5072120;28;20366;-67
2022/01/16 01:18:24;;;;;;;29.08;16.02;;;2.10;92.20;;;;;;5072126;28;20464;-67
2022/01/16 01:20:51;;;;;;;27.52;16.02;;;2.10;92.60;;;;;;5072084;28;20035;-66
2022/01/16 01:23:17;;;;;;;31.55;15.68;;;2.10;92.70;;;;;;5071476;28;20036;-68
2022/01/16 01:25:43;;;;;;;28.40;16.17;;;2.10;92.40;;;;;;5072007;28;20377;-67
2022/01/16 01:28:11;;;;;;;28.85;15.55;;;2.10;92.40;;;;;;5071741;28;20112;-67
2022/01/16 01:30:38;;;;;;;27.85;16.08;;;2.10;92.50;;;;;;5071707;28;20503;-67
2022/01/16 01:33:04;;;;;;;31.92;15.55;;;2.10;92.80;;;;;;5071239;28;20040;-67
2022/01/16 01:35:36;;;;;;;27.50;15.52;;;2.10;92.90;;;;;;5071897;28;20033;-67
2022/01/16 01:38:02;;;;;;;31.05;15.93;;;2.00;92.60;;;;;;5071560;28;20024;-67
2022/01/16 01:40:28;;;;;;;28.00;16.48;;;2.00;92.60;;;;;;5071942;28;20082;-67
2022/01/16 01:51:32;;;;;;;27.23;15.13;;;1.90;93.00;;;;;;5071933;28;20086;-68
2022/01/16 01:53:59;;;;;;;34.03;16.25;;;1.90;93.70;;;;;;5071232;28;20460;-68
2022/01/16 01:56:26;;;;;;;31.00;15.35;;;1.90;93.50;;;;;;5071506;28;20094;-68
2022/01/16 01:58:54;;;;;;;28.02;15.70;;;2.00;93.50;;;;;;5071526;28;20465;-67
2022/01/16 02:01:21;;;;;;;30.27;16.30;;;1.90;93.40;;;;;;5071781;28;20108;-67
2022/01/16 02:03:48;;;;;;;26.58;15.60;;;1.90;93.40;;;;;;5071488;28;20487;-67
2022/01/16 02:06:26;;;;;;;28.90;16.42;;;2.00;93.50;;;;;;5071263;28;20024;-67
2022/01/16 02:08:55;;;;;;;31.73;15.43;;;1.90;93.30;;;;;;5073704;28;20028;-67
2022/01/16 02:11:27;;;;;;;28.05;14.80;;;1.90;93.30;;;;;;5075641;28;20017;-67
2022/01/16 02:28:05;;;;;;;23.27;15.07;;;1.80;92.80;;;;;;5075233;28;20067;-68
2022/01/16 02:34:28;;;;;;;25.60;14.88;;;1.70;92.60;;;;;;5074445;28;20079;-68
2022/01/16 02:36:13;;;;;;;30.17;15.32;;;1.70;92.70;;;;;;5074023;28;20068;-67
2022/01/16 02:38:39;;;;;;;26.52;16.08;;;1.70;92.90;;;;;;5075132;28;20407;-68
2022/01/16 02:41:05;;;;;;;27.90;15.93;;;1.60;92.10;;;;;;5074525;28;20017;-67
2022/01/16 02:43:34;;;;;;;30.40;16.05;;;1.60;92.50;;;;;;5056874;28;20060;-67
2022/01/16 02:48:48;;;;;;;30.50;16.42;;;1.60;93.30;;;;;;5059084;28;20028;-68
2022/01/16 02:51:33;;;;;;;29.35;16.48;;;1.50;93.40;;;;;;5074334;28;20028;-68
2022/01/16 02:53:59;;;;;;;33.53;16.77;;;1.60;93.70;;;;;;5074084;28;20577;-68
2022/01/16 02:56:25;;;;;;;29.70;17.10;;;1.60;93.50;;;;;;5074742;28;20055;-68
2022/01/16 02:58:51;;;;;;;29.58;15.95;;;1.60;93.30;;;;;;5074301;28;20024;-67
2022/01/16 03:01:17;;;;;;;29.00;16.50;;;1.50;93.10;;;;;;5073924;28;20027;-67
2022/01/16 03:03:43;;;;;;;31.40;17.95;;;1.50;92.90;;;;;;5074105;28;20029;-67
2022/01/16 03:06:09;;;;;;;28.95;16.75;;;1.50;93.40;;;;;;5073655;28;20362;-66
2022/01/16 03:08:35;;;;;;;33.20;18.02;;;1.40;93.70;;;;;;5074354;28;20078;-66
2022/01/16 03:11:23;;;;;;;28.02;16.85;;;1.40;93.40;;;;;;5073891;28;20029;-67
2022/01/16 03:13:50;;;;;;;28.55;17.08;;;1.40;93.80;;;;;;5074148;28;20036;-66
2022/01/16 03:16:18;;;;;;;29.52;16.27;;;1.40;93.60;;;;;;5073678;28;20028;-67
2022/01/16 03:24:12;;;;;;;30.60;17.27;;;1.30;94.70;;;;;;5073677;28;20428;-67
2022/01/16 03:26:37;;;;;;;25.95;16.15;;;1.30;94.40;;;;;;5074107;28;20025;-67
2022/01/16 03:29:04;;;;;;;28.33;16.10;;;1.20;94.60;;;;;;5073524;28;20029;-67
2022/01/16 03:31:29;;;;;;;28.02;15.77;;;1.30;95.10;;;;;;5074146;28;20039;-67
2022/01/16 03:33:55;;;;;;;43.10;16.08;;;1.30;95.10;;;;;;5073616;28;20037;-66
2022/01/16 03:36:21;;;;;;;23.95;16.50;;;1.20;94.70;;;;;;5073474;28;20028;-67
2022/01/16 03:38:47;;;;;;;33.17;17.02;;;1.20;95.10;;;;;;5073998;28;20067;-66
2022/01/16 03:41:13;;;;;;;26.15;15.98;;;1.20;95.30;;;;;;5073611;28;20357;-66
2022/01/16 03:43:39;;;;;;;24.52;15.60;;;1.20;95.40;;;;;;5073824;28;20032;-67
2022/01/16 03:46:05;;;;;;;25.33;16.10;;;1.20;95.40;;;;;;5073057;28;20028;-67
2022/01/16 03:48:30;;;;;;;25.90;15.32;;;1.10;95.10;;;;;;5073869;28;20035;-67
2022/01/16 03:50:56;;;;;;;24.80;15.75;;;1.10;95.00;;;;;;5073364;28;20060;-67
2022/01/16 03:53:22;;;;;;;24.40;15.23;;;1.10;95.60;;;;;;5073218;28;20055;-66
2022/01/16 03:55:48;;;;;;;22.02;14.15;;;1.10;95.60;;;;;;5073545;28;20437;-67
2022/01/16 03:58:14;;;;;;;30.77;16.02;;;1.10;95.70;;;;;;5072985;28;20419;-67
2022/01/16 04:00:40;;;;;;;30.25;16.55;;;1.10;95.80;;;;;;5073895;28;20028;-67
2022/01/16 04:03:06;;;;;;;26.13;15.57;;;1.10;95.70;;;;;;5072970;28;20052;-67
2022/01/16 04:05:32;;;;;;;24.02;14.82;;;1.00;95.60;;;;;;5073483;28;20032;-67
2022/01/16 04:07:59;;;;;;;24.65;15.00;;;1.10;95.80;;;;;;5073458;28;20085;-67
2022/01/16 04:10:25;;;;;;;27.05;15.95;;;1.00;95.50;;;;;;5072848;28;20516;-67
2022/01/16 04:12:51;;;;;;;24.67;15.63;;;1.00;95.70;;;;;;5073221;28;20032;-67
2022/01/16 04:17:45;;;;;;;24.63;16.02;;;1.00;95.50;;;;;;5072914;28;20032;-67
2022/01/16 04:20:15;;;;;;;26.83;16.33;;;0.90;95.40;;;;;;5072604;28;20029;-67
2022/01/16 04:22:43;;;;;;;31.48;15.90;;;0.90;95.50;;;;;;5073031;28;20028;-67
2022/01/16 04:25:09;;;;;;;21.08;14.45;;;0.90;95.60;;;;;;5072558;28;20067;-66
2022/01/16 04:27:34;;;;;;;23.30;15.13;;;0.90;95.80;;;;;;5073064;28;20055;-67
2022/01/16 04:30:00;;;;;;;24.20;14.52;;;0.90;96.10;;;;;;5072686;28;20028;-67
2022/01/16 04:32:26;;;;;;;26.45;15.82;;;0.80;96.20;;;;;;5071879;28;20029;-67
2022/01/16 04:34:52;;;;;;;26.83;15.65;;;0.90;96.40;;;;;;5072820;28;20258;-67
2022/01/16 04:37:17;;;;;;;24.60;14.70;;;0.80;96.30;;;;;;5072338;28;20033;-67
2022/01/16 04:39:49;;;;;;;24.63;14.98;;;0.80;96.10;;;;;;5072802;28;20036;-67
2022/01/16 04:44:59;;;;;;;23.15;15.35;;;0.80;96.20;;;;;;5072574;28;20047;-67
2022/01/16 04:47:26;;;;;;;25.75;16.20;;;0.80;96.30;;;;;;5072140;28;20024;-67
2022/01/16 04:49:51;;;;;;;25.33;15.35;;;0.80;96.40;;;;;;5072373;28;20468;-66
2022/01/16 04:52:17;;;;;;;28.80;15.80;;;0.80;96.30;;;;;;5072088;28;20024;-67
2022/01/16 04:54:43;;;;;;;22.73;14.88;;;0.80;96.30;;;;;;5072067;28;20064;-67
2022/01/16 04:57:10;;;;;;;26.80;14.57;;;0.80;96.40;;;;;;5071374;28;20051;-67
2022/01/16 04:59:35;;;;;;;24.98;14.82;;;0.80;96.30;;;;;;5071628;28;20035;-67
2022/01/16 05:02:01;;;;;;;24.15;16.00;;;0.80;96.00;;;;;;5071675;28;20016;-69
2022/01/16 05:04:27;;;;;;;23.00;14.95;;;0.80;96.20;;;;;;5070852;28;20115;-66
2022/01/16 05:06:52;;;;;;;23.80;15.93;;;0.90;96.40;;;;;;5071572;28;20457;-67
2022/01/16 05:09:18;;;;;;;25.25;16.60;;;0.80;96.00;;;;;;5071073;28;20029;-67
2022/01/16 05:11:45;;;;;;;29.50;17.08;;;0.80;96.00;;;;;;5071610;28;20021;-67
2022/01/16 05:17:15;;;;;;;33.28;16.10;;;0.80;96.90;;;;;;5008910;28;20037;-66
2022/01/16 05:19:40;;;;;;;26.17;15.75;;;0.70;96.90;;;;;;5009400;28;20636;-67
2022/01/16 05:22:06;;;;;;;27.02;16.27;;;0.80;97.10;;;;;;5037627;28;20094;-67
2022/01/16 05:24:34;;;;;;;27.48;16.27;;;0.80;97.30;;;;;;5070595;28;20048;-66
2022/01/16 05:27:01;;;;;;;27.63;15.98;;;0.80;97.30;;;;;;5071195;28;20143;-67
2022/01/16 05:29:27;;;;;;;29.15;16.15;;;0.70;97.10;;;;;;5070670;28;20055;-66
2022/01/16 05:31:52;;;;;;;29.75;17.23;;;0.70;96.70;;;;;;5071101;28;20059;-66
2022/01/16 05:34:18;;;;;;;26.75;17.10;;;0.70;97.20;;;;;;5070602;28;20028;-67
2022/01/16 05:36:45;;;;;;;31.40;16.63;;;0.70;97.50;;;;;;5071155;28;20025;-67
2022/01/16 05:39:11;;;;;;;26.65;16.83;;;0.70;97.80;;;;;;5070971;28;20032;-67
2022/01/16 05:41:37;;;;;;;28.67;16.48;;;0.70;97.80;;;;;;5070862;28;20071;-67
2022/01/16 05:44:03;;;;;;;21.88;16.27;;;0.80;98.00;;;;;;5069991;28;20029;-67
2022/01/16 05:46:29;;;;;;;25.63;15.30;;;0.80;98.20;;;;;;5070707;28;20062;-67
2022/01/16 05:48:55;;;;;;;31.15;16.25;;;0.80;98.10;;;;;;5071208;28;20109;-67
2022/01/16 05:51:20;;;;;;;29.65;17.23;;;0.70;97.90;;;;;;5070391;28;20031;-66
2022/01/16 05:53:46;;;;;;;25.05;16.20;;;0.70;97.80;;;;;;5071006;28;20473;-67
2022/01/16 05:56:12;;;;;;;29.83;16.65;;;0.60;97.50;;;;;;5014002;28;1107069;-67
2022/01/16 05:58:39;;;;;;;28.55;16.75;;;0.60;98.10;;;;;;5071660;28;20037;-66
2022/01/16 06:01:05;;;;;;;29.25;16.25;;;0.70;98.50;;;;;;5071694;28;20028;-67
2022/01/16 06:03:31;;;;;;;28.35;16.83;;;0.70;98.90;;;;;;5071210;28;20035;-67
2022/01/16 06:05:56;;;;;;;28.27;16.65;;;0.60;98.40;;;;;;5071601;28;20032;-67
2022/01/16 06:08:22;;;;;;;31.25;16.83;;;0.60;98.50;;;;;;5071023;28;20025;-67
2022/01/16 06:10:48;;;;;;;30.13;17.05;;;0.60;98.60;;;;;;5071257;28;20064;-68
2022/01/16 06:13:14;;;;;;;29.52;18.35;;;0.60;98.60;;;;;;5070989;28;20117;-68
2022/01/16 06:15:40;;;;;;;27.65;17.63;;;0.50;98.60;;;;;;5071397;28;20031;-68
2022/01/16 06:18:07;;;;;;;30.45;18.27;;;0.50;98.80;;;;;;5071169;28;20024;-67
2022/01/16 06:20:33;;;;;;;26.83;17.05;;;0.50;98.80;;;;;;5070955;28;20090;-67
2022/01/16 06:23:00;;;;;;;26.73;17.95;;;0.50;99.00;;;;;;5071281;28;20051;-68
2022/01/16 06:25:27;;;;;;;32.42;18.05;;;0.50;99.20;;;;;;5070790;28;20036;-67
2022/01/16 06:27:52;;;;;;;31.27;18.02;;;0.50;99.40;;;;;;5071358;28;20070;-67
2022/01/16 06:30:19;;;;;;;26.90;17.77;;;0.50;99.40;;;;;;5070814;28;20056;-67
2022/01/16 06:32:45;;;;;;;28.08;18.00;;;0.50;99.90;;;;;;5071339;28;20116;-67
2022/01/16 06:35:13;;;;;;;26.48;17.33;;;0.60;99.90;;;;;;5071306;28;20178;-68
2022/01/16 06:37:39;;;;;;;27.92;17.85;;;0.60;99.90;;;;;;5070839;28;20029;-68
2022/01/16 06:40:06;;;;;;;27.00;17.63;;;0.50;99.40;;;;;;5071201;28;20024;-68
2022/01/16 06:42:32;;;;;;;32.70;18.48;;;0.50;99.40;;;;;;5070531;28;20025;-68
2022/01/16 06:44:58;;;;;;;27.00;16.67;;;0.50;99.50;;;;;;5071134;28;20393;-68
2022/01/16 06:47:24;;;;;;;25.80;17.55;;;0.60;99.90;;;;;;5070774;28;20025;-68
2022/01/16 06:49:50;;;;;;;27.90;17.77;;;0.60;99.90;;;;;;5071124;28;20025;-67
2022/01/16 06:52:16;;;;;;;26.58;17.52;;;0.60;99.90;;;;;;5071154;28;20031;-68
2022/01/16 06:54:41;;;;;;;26.10;17.17;;;0.60;99.70;;;;;;5072368;28;20039;-67
2022/01/16 06:57:08;;;;;;;29.10;17.90;;;0.60;99.60;;;;;;5074660;28;20480;-67
2022/01/16 06:59:35;;;;;;;26.55;17.63;;;0.60;99.40;;;;;;5074228;28;20032;-67
2022/01/16 07:02:01;;;;;;;38.42;20.25;;;0.60;99.40;;;;;;5074615;28;20032;-67
2022/01/16 07:04:27;;;;;;;29.20;19.45;;;0.60;99.30;;;;;;5074092;28;20098;-67
2022/01/16 07:06:53;;;;;;;29.38;19.52;;;0.60;99.50;;;;;;5074161;28;20028;-67
2022/01/16 07:09:19;;;;;;;35.55;19.40;;;0.60;99.30;;;;;;5073805;28;20474;-67
2022/01/16 07:11:44;;;;;;;34.75;19.55;;;0.50;99.40;;;;;;5073839;28;20021;-68
2022/01/16 07:14:10;;;;;;;30.60;19.27;;;0.60;99.80;;;;;;5073872;28;20371;-68
2022/01/16 07:16:36;;;;;;;28.77;19.65;;;0.60;99.90;;;;;;5073867;28;20028;-67
2022/01/16 07:19:01;;;;;;;30.65;19.80;;;0.70;99.90;;;;;;5074072;28;20056;-67
2022/01/16 07:21:27;;;;;;;32.53;19.70;;;0.60;99.80;;;;;;5073583;28;20020;-68
2022/01/16 07:23:53;;;;;;;36.13;20.60;;;0.70;99.90;;;;;;5074210;28;20032;-67
2022/01/16 07:26:19;;;;;;;32.25;19.90;;;0.70;99.90;;;;;;5073575;28;20017;-68
2022/01/16 07:28:46;;;;;;;33.47;19.77;;;0.70;99.70;;;;;;5074020;28;20044;-68
2022/01/16 07:31:12;;;;;;;35.17;20.98;;;0.80;99.90;;;;;;5074106;28;20029;-67
2022/01/16 07:33:38;;;;;;;32.05;20.63;;;0.70;99.70;;;;;;5073542;28;20031;-66
2022/01/16 07:36:05;;;;;;;31.33;20.42;;;0.80;99.80;;;;;;5073767;28;20032;-66
2022/01/16 07:38:31;;;;;;;31.02;20.33;;;0.80;99.50;;;;;;5073677;28;20025;-66
2022/01/16 07:40:57;;;;;;;38.75;22.27;;;0.80;99.50;;;;;;5073848;28;20176;-66
2022/01/16 07:43:23;;;;;;;32.42;21.13;;;0.80;99.50;;;;;;5073670;28;20107;-67
2022/01/16 07:45:49;;;;;;;42.10;21.98;;;0.80;99.20;;;;;;5055737;28;20036;-67
2022/01/16 07:48:15;;;;;;;36.38;20.92;;;0.80;99.20;;;;;;5073937;28;20021;-68
2022/01/16 07:50:41;;;;;;;37.33;21.13;;;0.70;99.30;;;;;;5073115;28;20357;-67
2022/01/16 07:53:07;;;;;;;36.38;22.13;;;0.70;99.40;;;;;;5073276;28;20114;-67
2022/01/16 07:55:33;;;;;;;32.47;20.25;;;0.70;99.70;;;;;;5072529;28;20507;-67
2022/01/16 07:57:59;;;;;;;33.20;20.83;;;0.80;99.90;;;;;;5073422;28;20099;-67
2022/01/16 08:00:26;;;;;;;30.65;20.90;;;0.80;99.90;;;;;;5073262;28;20099;-67
2022/01/16 08:02:52;;;;;;;29.80;19.73;;;0.80;99.90;;;;;;5055444;28;20430;-67
2022/01/16 08:05:19;;;;;;;33.53;20.92;;;0.90;99.90;;;;;;5054804;28;20380;-68
2022/01/16 08:07:45;;;;;;;31.65;19.70;;;1.00;99.90;;;;;;5071883;28;20017;-65
2022/01/16 08:10:12;;;;;;;30.42;18.30;;;1.10;99.90;;;;;;5072922;28;20469;-67
2022/01/16 08:12:38;;;;;;;30.45;18.63;;;1.20;99.90;;;;;;5072840;28;20028;-67
2022/01/16 08:15:05;;;;;;;28.63;19.40;;;1.30;99.80;;;;;;5073218;28;20477;-67
2022/01/16 08:17:31;;;;;;;30.90;19.08;;;1.30;98.70;;;;;;5072138;28;20458;-68
2022/01/16 08:19:57;;;;;;;35.67;19.63;;;1.40;98.40;;;;;;5073117;28;20036;-67
2022/01/16 08:22:23;;;;;;;32.03;19.95;;;1.50;97.90;;;;;;5072456;28;20029;-68
2022/01/16 08:24:48;;;;;;;28.73;19.63;;;1.50;97.20;;;;;;5072739;28;20050;-67
2022/01/16 08:27:15;;;;;;;32.25;20.88;;;1.50;96.70;;;;;;5073103;28;20138;-68
2022/01/16 08:29:42;;;;;;;29.73;19.42;;;1.60;96.70;;;;;;5072366;28;20032;-68
2022/01/16 08:32:08;;;;;;;31.60;19.90;;;1.50;95.80;;;;;;5072983;28;20082;-67
2022/01/16 08:34:34;;;;;;;32.25;20.42;;;1.50;95.60;;;;;;5054373;28;20032;-67
2022/01/16 08:37:00;;;;;;;34.58;21.20;;;1.50;95.40;;;;;;5072782;28;20048;-67
2022/01/16 08:39:25;;;;;;;34.72;20.05;;;1.50;95.70;;;;;;5072333;28;20104;-67
2022/01/16 08:41:51;;;;;;;29.73;19.23;;;1.50;95.40;;;;;;5072815;28;20020;-67
2022/01/16 08:44:19;;;;;;;29.88;19.75;;;1.50;95.40;;;;;;5072368;28;20034;-67
2022/01/16 08:46:44;;;;;;;28.10;19.48;;;1.50;95.60;;;;;;5072405;28;20070;-68
2022/01/16 08:49:10;;;;;;;29.35;18.42;;;1.50;96.10;;;;;;5072744;28;20025;-68
2022/01/16 08:51:35;;;;;;;29.52;18.83;;;1.60;96.00;;;;;;5071979;28;20024;-68
2022/01/16 08:54:01;;;;;;;28.35;18.88;;;1.60;96.00;;;;;;5072274;28;20389;-68
2022/01/16 08:56:27;;;;;;;29.67;18.95;;;1.70;95.80;;;;;;5072090;28;20503;-67
2022/01/16 08:58:52;;;;;;;28.70;18.95;;;1.70;95.60;;;;;;5072252;28;20115;-67
2022/01/16 09:01:18;;;;;;;27.05;19.25;;;1.80;95.30;;;;;;5072338;28;20029;-67
2022/01/16 09:03:44;;;;;;;29.42;19.00;;;1.80;94.90;;;;;;5072036;28;20032;-68
2022/01/16 09:06:09;;;;;;;29.30;19.35;;;1.80;95.10;;;;;;5072020;28;20036;-68
2022/01/16 09:08:35;;;;;;;26.42;19.00;;;1.80;95.10;;;;;;5071688;28;20104;-67
2022/01/16 09:11:02;;;;;;;30.60;19.20;;;1.90;95.10;;;;;;5072122;28;20029;-68
2022/01/16 09:13:27;;;;;;;30.63;19.98;;;1.90;95.20;;;;;;5071608;28;20468;-66
2022/01/16 09:15:53;;;;;;;30.05;19.60;;;1.90;95.10;;;;;;5072476;28;20090;-67
2022/01/16 09:18:19;;;;;;;28.73;19.83;;;1.90;95.00;;;;;;5072067;28;20368;-68
2022/01/16 09:20:46;;;;;;;29.23;19.60;;;2.00;95.10;;;;;;5071578;28;20047;-69
2022/01/16 09:23:12;;;;;;;29.83;19.60;;;2.00;94.80;;;;;;5071831;28;20539;-67
2022/01/16 09:25:38;;;;;;;31.38;19.63;;;2.00;94.40;;;;;;5071780;28;20032;-67
2022/01/16 09:28:05;;;;;;;29.00;20.10;;;2.00;94.50;;;;;;5071999;28;20032;-67
2022/01/16 09:30:32;;;;;;;32.40;20.05;;;2.00;94.40;;;;;;5071544;28;20056;-67
2022/01/16 09:32:59;;;;;;;30.52;20.27;;;2.00;94.40;;;;;;5072086;28;20104;-68
2022/01/16 09:35:25;;;;;;;35.58;20.48;;;2.00;94.60;;;;;;5071630;28;20028;-67
2022/01/16 09:37:51;;;;;;;36.45;21.02;;;2.00;94.80;;;;;;5072125;28;20025;-68
2022/01/16 09:40:19;;;;;;;30.10;19.92;;;2.00;94.70;;;;;;5071729;28;20450;-68
2022/01/16 09:42:46;;;;;;;32.97;20.83;;;2.00;94.70;;;;;;5071429;28;20025;-67
2022/01/16 09:45:14;;;;;;;31.15;20.15;;;2.00;94.20;;;;;;5071958;28;20036;-68
2022/01/16 09:47:41;;;;;;;32.63;20.95;;;2.00;94.90;;;;;;5071436;28;20021;-68
2022/01/16 09:50:07;;;;;;;33.60;20.73;;;2.10;94.90;;;;;;5071815;28;20306;-68
2022/01/16 09:52:38;;;;;;;30.75;20.63;;;2.10;94.90;;;;;;5071333;28;20073;-68
2022/01/16 09:55:05;;;;;;;33.25;20.20;;;2.20;95.30;;;;;;5071752;28;20048;-67
2022/01/16 09:57:31;;;;;;;33.25;21.35;;;2.20;95.00;;;;;;5071117;28;20021;-68
2022/01/16 09:59:58;;;;;;;32.45;21.80;;;2.30;95.00;;;;;;5071779;28;20381;-68
2022/01/16 10:02:23;;;;;;;33.67;20.85;;;2.40;95.10;;;;;;5071753;28;20087;-67
2022/01/16 10:04:50;;;;;;;38.65;21.63;;;2.50;95.30;;;;;;5071046;28;20389;-68
2022/01/16 10:07:18;;;;;;;33.33;20.65;;;2.70;95.30;;;;;;5071662;28;20025;-67
2022/01/16 10:10:03;;;;;;;31.75;20.08;;;2.80;94.60;;;;;;5071225;28;20039;-68
2022/01/16 10:12:29;;;;;;;33.25;20.65;;;3.00;93.80;;;;;;5071243;28;20039;-68
2022/01/16 10:14:56;;;;;;;32.40;20.75;;;3.20;93.60;;;;;;5053395;28;20037;-67
2022/01/16 10:17:24;;;;;;;29.75;20.65;;;3.30;92.90;;;;;;5071474;28;20086;-67
2022/01/16 10:20:03;;;;;;;32.75;19.90;;;3.50;92.20;;;;;;5071175;28;20070;-69
2022/01/16 10:22:43;;;;;;;27.25;19.98;;;3.70;91.90;;;;;;5070672;28;20473;-68
2022/01/16 10:28:13;;;;;;;30.30;18.40;;;4.10;91.10;;;;;;5071362;28;20082;-68
2022/01/16 10:30:41;;;;;;;32.53;18.92;;;4.30;90.50;;;;;;5074343;28;20107;-68
2022/01/16 10:33:16;;;;;;;31.25;19.42;;;4.50;88.30;;;;;;5075206;28;20027;-68
2022/01/16 10:35:44;;;;;;;32.33;19.60;;;4.70;87.30;;;;;;5074110;28;20036;-67
2022/01/16 10:38:15;;;;;;;28.38;19.35;;;4.80;85.10;;;;;;5075137;28;20385;-67
2022/01/16 10:40:41;;;;;;;35.50;19.00;;;5.00;83.40;;;;;;5074616;28;20372;-68
2022/01/16 10:43:13;;;;;;;26.35;17.67;;;5.10;81.90;;;;;;5074723;28;20478;-68
2022/01/16 10:45:41;;;;;;;25.00;17.00;;;5.20;81.70;;;;;;5074610;28;20457;-68
2022/01/16 10:48:07;;;;;;;24.85;16.42;;;5.40;81.80;;;;;;5074863;28;20025;-68
2022/01/16 10:50:38;;;;;;;25.90;16.67;;;5.50;81.20;;;;;;5074575;28;20070;-68
2022/01/16 10:53:08;;;;;;;24.27;17.35;;;5.60;80.40;;;;;;5074748;28;20029;-68
2022/01/16 10:55:38;;;;;;;27.23;16.50;;;5.70;79.00;;;;;;5074295;28;20048;-68
2022/01/16 10:58:12;;;;;;;27.90;17.67;;;5.90;78.40;;;;;;5074701;28;20107;-68
2022/01/16 11:00:40;;;;;;;24.40;16.70;;;5.90;76.90;;;;;;5074245;28;20029;-68
2022/01/16 11:03:08;;;;;;;22.50;16.63;;;5.90;76.00;;;;;;5074578;28;20031;-68
2022/01/16 11:05:40;;;;;;;25.27;16.25;;;5.90;75.20;;;;;;5073913;28;20021;-68
2022/01/16 11:08:09;;;;;;;25.52;15.57;;;5.80;74.40;;;;;;5073758;28;20076;-67
2022/01/16 11:10:37;;;;;;;24.35;16.63;;;5.80;75.20;;;;;;5074342;28;20115;-68
2022/01/16 11:13:09;;;;;;;20.73;15.60;;;5.70;75.40;;;;;;5055918;28;20038;-67
2022/01/16 11:15:36;;;;;;;22.45;15.93;;;5.70;75.60;;;;;;5074126;28;20042;-67
2022/01/16 11:18:03;;;;;;;22.50;15.25;;;5.60;76.10;;;;;;5074376;28;20029;-67
2022/01/16 11:20:34;;;;;;;22.38;15.95;;;5.60;76.80;;;;;;5074702;28;20027;-68
2022/01/16 11:25:31;;;;;;;23.08;16.85;;;5.50;77.20;;;;;;5074430;28;20032;-68
2022/01/16 11:27:58;;;;;;;;;;;5.40;77.50;;;;;;5074633;28;20069;-67
2022/01/16 11:30:24;;;;;;;23.75;16.45;;;5.40;78.60;;;;;;5074083;28;20353;-68
2022/01/16 11:32:50;;;;;;;24.83;16.92;;;5.50;78.50;;;;;;5073464;28;20021;-68
2022/01/16 11:35:17;;;;;;;22.52;15.98;;;5.50;79.80;;;;;;5074088;28;20043;-68
2022/01/16 11:37:43;;;;;;;23.55;16.10;;;5.60;79.50;;;;;;5073238;28;20054;-67
2022/01/16 11:40:37;;;;;;;25.10;17.23;;;5.70;79.30;;;;;;5073893;28;20028;-78
2022/01/16 11:43:19;;;;;;;21.27;16.75;;;5.80;78.90;;;;;;5073937;28;20055;-67
2022/01/16 11:45:49;;;;;;;24.02;16.45;;;5.90;77.20;;;;;;5073144;28;20025;-67
2022/01/16 11:48:19;;;;;;;27.98;18.38;;;5.90;77.20;;;;;;5073707;28;20044;-68
2022/01/16 11:50:46;;;;;;;25.67;18.70;;;6.10;76.80;;;;;;5073358;28;20029;-69
2022/01/16 11:53:50;;;;;;;23.65;17.23;;;6.10;76.50;;;;;;5073598;28;20773;-68
2022/01/16 11:56:40;;;;;;;25.35;17.48;;;6.10;74.90;;;;;;5073735;28;20418;-68
2022/01/16 11:59:14;;;;;;;25.15;18.00;;;6.20;74.70;;;;;;5073149;28;20469;-68
2022/01/16 12:01:46;;;;;;;26.65;17.98;;;6.20;74.80;;;;;;5073235;28;20036;-68
2022/01/16 12:04:43;;;;;;;23.42;17.20;;;6.20;74.20;;;;;;5073526;28;20067;-68
2022/01/16 12:07:19;;;;;;;29.02;17.80;;;6.20;73.90;;;;;;5052232;28;20097;-67
2022/01/16 12:12:13;;;;;;;26.25;18.30;;;6.00;74.10;;;;;;5073529;28;20028;-67
2022/01/16 12:14:51;;;;;;;26.70;19.10;;;6.10;75.20;;;;;;5072895;28;20043;-66
2022/01/16 12:20:13;;;;;;;23.85;17.00;;;6.20;76.20;;;;;;5073346;28;20039;-67
2022/01/16 12:22:42;;;;;;;19.02;14.90;;;6.40;76.10;;;;;;5072966;28;20032;-68
2022/01/16 12:25:33;;;;;;;22.52;17.27;;;6.40;74.70;;;;;;5072658;28;20404;-67
2022/01/16 12:28:05;;;;;;;24.33;15.70;;;6.50;73.80;;;;;;5072699;28;20020;-67
2022/01/16 12:30:37;;;;;;;27.45;16.05;;;6.60;73.50;;;;;;5073109;28;20038;-67
2022/01/16 12:33:08;;;;;;;23.05;15.80;;;6.70;73.40;;;;;;5073319;28;20093;-67
2022/01/16 12:35:50;;;;;;;20.95;14.98;;;6.80;73.20;;;;;;5073080;28;20016;-67
2022/01/16 12:38:53;;;;;;;19.63;15.35;;;6.90;72.70;;;;;;5073046;28;20051;-68
2022/01/16 12:41:33;;;;;;;23.40;15.48;;;7.00;72.30;;;;;;5038916;28;20041;-67
2022/01/16 12:44:17;;;;;;;22.38;15.93;;;7.00;71.40;;;;;;5072292;28;20366;-68
2022/01/16 12:46:48;;;;;;;25.85;15.75;;;7.00;72.10;;;;;;5072406;28;20369;-68
2022/01/16 12:49:25;;;;;;;;;;;7.10;71.90;;;;;;5073265;28;20055;-68
2022/01/16 12:51:55;;;;;;;26.05;16.42;;;7.20;71.80;;;;;;5071708;28;19904;-68
2022/01/16 12:54:26;;;;;;;20.87;15.93;;;7.20;71.10;;;;;;5072688;28;20032;-68
2022/01/16 12:56:56;;;;;;;26.80;17.75;;;7.30;71.00;;;;;;5072104;28;20045;-68
2022/01/16 12:59:30;;;;;;;26.50;16.40;;;7.40;71.20;;;;;;5072384;28;20029;-68
2022/01/16 13:02:01;;;;;;;22.85;16.65;;;7.50;70.40;;;;;;5072023;28;20028;-68
2022/01/16 13:04:40;;;;;;;25.35;16.17;;;7.60;69.60;;;;;;5072405;28;20060;-68
2022/01/16 13:07:11;;;;;;;25.95;17.05;;;7.60;69.40;;;;;;5072593;28;20039;-67
2022/01/16 13:09:37;;;;;;;20.60;13.93;;;7.70;68.90;;;;;;5072306;28;20057;-68
2022/01/16 13:12:04;;;;;;;25.58;13.23;;;7.60;67.80;;;;;;5071743;28;20025;-68
2022/01/16 13:17:16;;;;;;;19.27;11.75;;;7.60;66.70;;;;;;5072355;28;20035;-67
2022/01/16 13:19:55;;;;;;;19.55;12.25;;;7.60;65.80;;;;;;5071966;28;20025;-68
2022/01/16 13:22:23;;;;;;;21.13;12.75;;;7.70;66.10;;;;;;5072033;28;20047;-67
2022/01/16 13:25:04;;;;;;;19.20;12.30;;;7.70;66.50;;;;;;5071534;28;20024;-67
2022/01/16 13:27:32;;;;;;;16.77;11.65;;;7.70;66.00;;;;;;5072160;28;20204;-67
2022/01/16 13:30:13;;;;;;;16.95;11.38;;;7.70;66.00;;;;;;5071514;28;20055;-67
2022/01/16 13:32:41;;;;;;;17.08;10.73;;;7.70;65.90;;;;;;5072123;28;20021;-69
2022/01/16 13:35:25;;;;;;;18.45;11.77;;;7.70;65.50;;;;;;5072025;28;20094;-67
2022/01/16 13:37:54;;;;;;;15.45;11.32;;;7.60;65.30;;;;;;5071274;28;20025;-68
2022/01/16 13:40:25;;;;;;;19.00;11.75;;;7.50;65.10;;;;;;5053963;28;20329;-67
2022/01/16 13:45:28;;;;;;;15.05;10.80;;;7.30;65.30;;;;;;5072083;28;19905;-67